createdAt,value
2018-04-06T00:00:26.798Z,12.75
2018-04-06T00:01:27.268Z,12.75
2018-04-06T00:02:27.781Z,12.77
2018-04-06T00:03:28.212Z,12.78
2018-04-06T00:04:28.683Z,12.77
2018-04-06T00:05:29.155Z,12.78
2018-04-06T00:06:29.628Z,12.80
2018-04-06T00:07:30.099Z,12.80
2018-04-06T00:08:30.569Z,12.80
2018-04-06T00:09:31.042Z,12.83
2018-04-06T00:10:31.512Z,12.82
2018-04-06T00:11:31.988Z,12.82
2018-04-06T00:12:32.458Z,12.80
2018-04-06T00:13:32.931Z,12.80
2018-04-06T00:14:33.401Z,12.82
2018-04-06T00:15:33.872Z,12.82
2018-04-06T00:16:34.344Z,12.80
2018-04-06T00:17:34.817Z,12.79
2018-04-06T00:18:35.287Z,12.82
2018-04-06T00:19:35.760Z,12.81
2018-04-06T00:20:36.231Z,12.81
2018-04-06T00:21:36.704Z,12.81
2018-04-06T00:22:37.176Z,12.80
2018-04-06T00:23:37.647Z,12.81
2018-04-06T00:24:38.121Z,12.81
2018-04-06T00:25:38.591Z,12.80
2018-04-06T00:26:39.062Z,12.76
2018-04-06T00:27:39.535Z,12.75
2018-04-06T00:28:40.005Z,12.73
2018-04-06T00:29:40.477Z,12.73
2018-04-06T00:30:40.949Z,12.73
2018-04-06T00:31:41.422Z,12.74
2018-04-06T00:32:41.896Z,12.73
2018-04-06T00:33:42.366Z,12.73
2018-04-06T00:34:42.838Z,12.73
2018-04-06T00:35:43.309Z,12.73
2018-04-06T00:36:43.780Z,12.73
2018-04-06T00:37:44.252Z,12.71
2018-04-06T00:38:44.724Z,12.70
2018-04-06T00:39:45.194Z,12.69
2018-04-06T00:40:45.665Z,12.67
2018-04-06T00:41:46.140Z,12.68
2018-04-06T00:42:46.612Z,12.67
2018-04-06T00:43:47.083Z,12.64
2018-04-06T00:44:47.556Z,12.62
2018-04-06T00:45:48.025Z,12.60
2018-04-06T00:46:48.505Z,12.60
2018-04-06T00:47:48.968Z,12.60
2018-04-06T00:48:49.438Z,12.60
2018-04-06T00:49:49.911Z,12.62
2018-04-06T00:50:50.383Z,12.63
2018-04-06T00:51:50.855Z,12.64
2018-04-06T00:52:51.327Z,12.64
2018-04-06T00:53:51.798Z,12.64
2018-04-06T00:54:52.270Z,12.64
2018-04-06T00:55:52.744Z,12.64
2018-04-06T00:56:53.213Z,12.61
2018-04-06T00:57:53.685Z,12.61
2018-04-06T00:58:54.208Z,12.59
2018-04-06T00:59:54.632Z,12.56
2018-04-06T01:00:55.102Z,12.55
2018-04-06T01:01:55.572Z,12.51
2018-04-06T01:02:56.042Z,12.50
2018-04-06T01:03:56.515Z,12.48
2018-04-06T01:04:56.988Z,12.45
2018-04-06T01:05:57.459Z,12.43
2018-04-06T01:06:57.934Z,12.39
2018-04-06T01:07:58.402Z,12.37
2018-04-06T01:08:58.874Z,12.35
2018-04-06T01:09:59.345Z,12.32
2018-04-06T01:10:59.816Z,12.31
2018-04-06T01:12:00.292Z,12.31
2018-04-06T01:13:00.760Z,12.30
2018-04-06T01:14:01.231Z,12.29
2018-04-06T01:15:01.705Z,12.29
2018-04-06T01:16:02.175Z,12.31
2018-04-06T01:17:02.646Z,12.28
2018-04-06T01:18:03.117Z,12.28
2018-04-06T01:19:03.589Z,12.28
2018-04-06T01:20:04.063Z,12.27
2018-04-06T01:21:04.532Z,12.26
2018-04-06T01:22:05.005Z,12.23
2018-04-06T01:23:05.478Z,12.22
2018-04-06T01:24:05.946Z,12.21
2018-04-06T01:25:06.417Z,12.19
2018-04-06T01:26:06.889Z,12.16
2018-04-06T01:27:07.361Z,12.14
2018-04-06T01:28:07.837Z,12.13
2018-04-06T01:29:08.303Z,12.12
2018-04-06T01:30:08.776Z,12.12
2018-04-06T01:31:09.248Z,12.13
2018-04-06T01:32:09.721Z,12.14
2018-04-06T01:33:10.190Z,12.15
2018-04-06T01:34:10.661Z,12.15
2018-04-06T01:35:11.138Z,12.14
2018-04-06T01:36:11.604Z,12.14
2018-04-06T01:37:12.074Z,12.11
2018-04-06T01:38:12.549Z,12.12
2018-04-06T01:39:13.067Z,12.13
2018-04-06T01:40:13.491Z,12.11
2018-04-06T01:41:13.961Z,12.11
2018-04-06T01:42:14.435Z,12.09
2018-04-06T01:43:14.904Z,12.09
2018-04-06T01:44:15.379Z,12.07
2018-04-06T01:45:15.846Z,12.07
2018-04-06T01:46:16.318Z,12.06
2018-04-06T01:47:16.792Z,12.05
2018-04-06T01:48:17.259Z,12.04
2018-04-06T01:49:17.785Z,12.04
2018-04-06T01:50:18.202Z,12.04
2018-04-06T01:51:18.674Z,12.06
2018-04-06T01:52:19.151Z,12.08
2018-04-06T01:53:19.617Z,12.07
2018-04-06T01:54:20.087Z,12.06
2018-04-06T01:55:20.563Z,12.06
2018-04-06T01:56:21.032Z,12.07
2018-04-06T01:57:21.501Z,12.08
2018-04-06T01:58:21.975Z,12.05
2018-04-06T01:59:22.498Z,12.06
2018-04-06T02:00:22.918Z,12.05
2018-04-06T02:01:23.386Z,12.05
2018-04-06T02:02:23.858Z,12.04
2018-04-06T02:03:24.331Z,12.04
2018-04-06T02:04:24.802Z,12.05
2018-04-06T02:05:25.272Z,12.06
2018-04-06T02:06:25.747Z,12.08
2018-04-06T02:07:26.215Z,12.12
2018-04-06T02:08:26.689Z,12.11
2018-04-06T02:09:27.158Z,12.11
2018-04-06T02:10:27.629Z,12.13
2018-04-06T02:11:28.103Z,12.11
2018-04-06T02:12:28.577Z,12.12
2018-04-06T02:13:29.042Z,12.11
2018-04-06T02:14:29.512Z,12.12
2018-04-06T02:15:29.986Z,12.13
2018-04-06T02:16:30.457Z,12.14
2018-04-06T02:17:30.928Z,12.15
2018-04-06T02:18:31.400Z,12.15
2018-04-06T02:19:31.921Z,12.13
2018-04-06T02:20:32.343Z,12.12
2018-04-06T02:21:32.814Z,12.11
2018-04-06T02:22:33.288Z,12.10
2018-04-06T02:23:33.755Z,12.08
2018-04-06T02:24:34.307Z,12.08
2018-04-06T02:25:34.698Z,12.08
2018-04-06T02:26:35.174Z,12.09
2018-04-06T02:27:35.640Z,12.07
2018-04-06T02:28:36.113Z,12.05
2018-04-06T02:29:36.633Z,12.03
2018-04-06T02:30:37.055Z,12.05
2018-04-06T02:31:37.524Z,12.04
2018-04-06T02:32:38.002Z,12.05
2018-04-06T02:33:38.467Z,12.05
2018-04-06T02:34:38.938Z,12.04
2018-04-06T02:35:39.413Z,12.02
2018-04-06T02:36:39.882Z,12.01
2018-04-06T02:37:40.355Z,12.01
2018-04-06T02:38:40.824Z,12.01
2018-04-06T02:39:41.344Z,12.04
2018-04-06T02:40:41.769Z,12.03
2018-04-06T02:41:42.236Z,12.03
2018-04-06T02:42:42.708Z,12.01
2018-04-06T02:43:43.187Z,12.01
2018-04-06T02:44:43.704Z,11.99
2018-04-06T02:45:44.121Z,11.97
2018-04-06T02:46:44.594Z,11.97
2018-04-06T02:47:45.060Z,11.96
2018-04-06T02:48:45.536Z,11.93
2018-04-06T02:49:46.066Z,11.92
2018-04-06T02:50:46.476Z,11.90
2018-04-06T02:51:46.949Z,11.87
2018-04-06T02:52:47.422Z,11.87
2018-04-06T02:53:47.889Z,11.86
2018-04-06T02:54:48.361Z,11.85
2018-04-06T02:55:48.831Z,11.84
2018-04-06T02:56:49.303Z,11.85
2018-04-06T02:57:49.774Z,11.85
2018-04-06T02:58:50.245Z,11.84
2018-04-06T02:59:50.769Z,11.83
2018-04-06T03:00:51.188Z,11.81
2018-04-06T03:02:52.133Z,11.84
2018-04-06T03:03:52.602Z,11.82
2018-04-06T03:04:53.083Z,11.82
2018-04-06T03:05:53.541Z,11.78
2018-04-06T03:06:54.218Z,11.76
2018-04-06T03:07:54.491Z,11.73
2018-04-06T03:08:54.960Z,11.72
2018-04-06T03:09:55.482Z,11.71
2018-04-06T03:10:55.897Z,11.71
2018-04-06T03:11:56.373Z,11.71
2018-04-06T03:12:56.847Z,11.73
2018-04-06T03:13:57.312Z,11.72
2018-04-06T03:15:58.251Z,11.70
2018-04-06T03:17:59.202Z,11.70
2018-04-06T03:20:00.191Z,11.66
2018-04-06T03:21:00.614Z,11.67
2018-04-06T03:22:01.087Z,11.64
2018-04-06T03:24:02.017Z,11.61
2018-04-06T03:26:02.971Z,11.57
2018-04-06T03:27:03.435Z,11.59
2018-04-06T03:28:03.907Z,11.58
2018-04-06T03:29:04.575Z,11.57
2018-04-06T03:30:04.900Z,11.57
2018-04-06T03:31:05.320Z,11.55
2018-04-06T03:32:05.794Z,11.55
2018-04-06T03:33:06.263Z,11.58
2018-04-06T03:34:06.733Z,11.59
2018-04-06T03:35:07.203Z,11.58
2018-04-06T03:38:08.617Z,11.59
2018-04-06T03:39:09.087Z,11.59
2018-04-06T03:40:09.609Z,11.60
2018-04-06T03:41:10.023Z,11.58
2018-04-06T03:42:10.700Z,11.57
2018-04-06T03:44:11.439Z,11.54
2018-04-06T03:45:11.910Z,11.53
2018-04-06T03:46:12.387Z,11.51
2018-04-06T03:47:12.851Z,11.49
2018-04-06T03:48:13.316Z,11.46
2018-04-06T03:50:14.314Z,11.47
2018-04-06T03:51:14.733Z,11.46
2018-04-06T03:53:15.678Z,11.44
2018-04-06T03:54:16.147Z,11.45
2018-04-06T03:56:17.089Z,11.43
2018-04-06T03:57:17.756Z,11.42
2018-04-06T03:58:18.028Z,11.43
2018-04-06T03:59:18.500Z,11.42
2018-04-06T04:00:19.021Z,11.41
2018-04-06T04:01:19.648Z,11.40
2018-04-06T04:02:20.114Z,11.37
2018-04-06T04:03:20.583Z,11.37
2018-04-06T04:04:22.267Z,11.37
2018-04-06T04:05:21.374Z,11.37
2018-04-06T04:06:21.989Z,11.37
2018-04-06T04:07:22.468Z,11.38
2018-04-06T04:08:22.942Z,11.36
2018-04-06T04:09:23.210Z,11.36
2018-04-06T04:10:24.486Z,11.37
2018-04-06T04:12:24.617Z,11.36
2018-04-06T04:13:25.087Z,11.36
2018-04-06T04:14:25.558Z,11.36
2018-04-06T04:15:26.026Z,11.35
2018-04-06T04:16:26.498Z,11.34
2018-04-06T04:17:27.173Z,11.37
2018-04-06T04:18:30.470Z,11.40
2018-04-06T04:19:27.909Z,11.40
2018-04-06T04:26:31.406Z,11.40
2018-04-06T04:27:31.672Z,11.40
2018-04-06T04:28:32.549Z,11.40
2018-04-06T04:29:32.614Z,11.39
2018-04-06T04:30:33.337Z,11.39
2018-04-06T04:32:34.027Z,11.40
2018-04-06T04:33:34.498Z,11.39
2018-04-06T04:34:35.370Z,11.42
2018-04-06T04:38:38.268Z,11.46
2018-04-06T04:39:37.725Z,11.47
2018-04-06T04:40:38.043Z,11.49
2018-04-06T04:41:39.660Z,11.50
2018-04-06T04:43:39.197Z,11.51
2018-04-06T04:44:39.672Z,11.49
2018-04-06T04:45:51.522Z,11.52
2018-04-06T04:48:41.550Z,11.51
2018-04-06T04:50:42.698Z,11.50
2018-04-06T04:51:44.785Z,11.52
2018-04-06T04:52:45.260Z,11.54
2018-04-06T04:54:44.580Z,11.57
2018-04-06T04:55:45.103Z,11.57
2018-04-06T04:56:46.735Z,11.59
2018-04-06T04:57:45.792Z,11.60
2018-04-06T05:01:47.674Z,11.63
2018-04-06T05:02:48.345Z,11.63
2018-04-06T05:04:49.085Z,11.66
2018-04-06T05:05:51.174Z,11.65
2018-04-06T05:06:50.231Z,11.68
2018-04-06T05:07:51.687Z,11.67
2018-04-06T05:10:04.583Z,11.68
2018-04-06T05:10:57.186Z,11.68
2018-04-06T05:14:54.401Z,11.70
2018-04-06T05:23:59.848Z,11.66
2018-04-06T05:24:59.309Z,11.65
2018-04-06T05:28:00.717Z,11.68
2018-04-06T05:30:01.257Z,11.70
2018-04-06T05:33:08.943Z,11.76
2018-04-06T05:37:04.811Z,11.78
2018-04-06T05:55:27.623Z,12.07
2018-04-06T05:56:28.294Z,12.09
2018-04-06T05:58:41.033Z,12.12
2018-04-06T06:00:29.435Z,12.17
2018-04-06T06:02:30.180Z,12.24
2018-04-06T06:03:30.847Z,12.26
2018-04-06T06:05:31.790Z,12.30
2018-04-06T06:06:32.262Z,12.33
2018-04-06T06:12:34.949Z,12.48
2018-04-06T06:13:35.561Z,12.53
2018-04-06T06:17:37.849Z,12.62
2018-04-06T06:19:38.195Z,12.69
2018-04-06T06:20:38.863Z,12.71
2018-04-06T06:22:39.855Z,12.80
2018-04-06T06:23:40.068Z,12.86
2018-04-06T06:25:41.219Z,12.91
2018-04-06T06:26:42.894Z,12.95
2018-04-06T06:28:45.464Z,13.02
2018-04-06T06:29:43.105Z,13.07
2018-04-06T06:30:57.326Z,13.09
2018-04-06T06:31:45.463Z,13.13
2018-04-06T06:32:48.211Z,13.16
2018-04-06T06:35:46.131Z,13.26
2018-04-06T06:37:46.726Z,13.33
2018-04-06T06:38:47.351Z,13.38
2018-04-06T06:39:48.812Z,13.40
2018-04-06T06:42:50.778Z,13.53
2018-04-06T06:43:50.520Z,13.56
2018-04-06T06:44:49.977Z,13.58
2018-04-06T06:45:51.856Z,13.64
2018-04-06T06:49:52.748Z,13.77
2018-04-06T06:52:54.364Z,13.88
2018-04-06T06:53:54.970Z,13.92
2018-04-06T07:07:00.778Z,14.40
2018-04-06T07:10:05.633Z,14.50
2018-04-06T07:15:06.368Z,14.66
2018-04-06T07:16:06.433Z,14.71
2018-04-06T07:20:08.077Z,14.82
2018-04-06T08:04:30.136Z,13.98
2018-04-06T08:14:10.782Z,13.11
2018-04-06T08:32:33.872Z,14.87
2018-04-06T08:43:37.515Z,15.93
2018-04-06T08:45:39.205Z,16.08
2018-04-06T08:49:43.132Z,16.39
2018-04-06T09:39:01.710Z,14.49
2018-04-06T09:46:17.287Z,15.44
2018-04-06T09:55:07.608Z,16.68
2018-04-06T10:41:05.138Z,15.22
2018-04-06T10:42:00.733Z,15.16
2018-04-06T10:52:33.431Z,15.43
2018-04-06T11:01:40.634Z,16.45
2018-04-06T11:13:10.724Z,17.47
2018-04-06T11:14:14.782Z,17.54
2018-04-06T11:16:18.037Z,17.65
2018-04-06T11:17:17.966Z,17.71
2018-04-06T11:19:16.015Z,17.80
2018-04-06T11:57:16.534Z,14.11
2018-04-06T12:02:31.627Z,14.67
2018-04-06T12:12:04.341Z,15.85
2018-04-06T12:20:08.525Z,16.72
2018-04-06T12:31:44.411Z,17.77
2018-04-06T13:25:48.813Z,16.21
2018-04-06T14:01:23.709Z,15.84
2018-04-06T14:03:12.845Z,15.56
2018-04-06T14:16:26.973Z,14.18
2018-04-06T14:18:42.263Z,14.09
2018-04-06T14:35:12.198Z,15.41
2018-04-06T21:11:04.513Z,15.15
2018-04-06T21:16:08.112Z,15.20
2018-04-06T21:17:20.836Z,15.23
2018-04-06T21:34:15.438Z,15.15
2018-04-06T21:46:24.477Z,13.27
2018-04-06T21:48:22.276Z,12.87
2018-04-06T21:49:25.897Z,12.68
2018-04-06T21:51:24.261Z,12.32
2018-04-06T21:53:26.552Z,12.06
2018-04-06T22:01:29.938Z,11.74
2018-04-06T22:02:29.975Z,11.79
2018-04-06T22:08:31.531Z,12.23
2018-04-06T22:09:32.280Z,12.31
2018-04-06T22:10:33.045Z,12.39
2018-04-06T22:11:34.622Z,12.47
2018-04-06T22:13:33.862Z,12.64
2018-04-06T22:15:38.209Z,12.79
2018-04-06T22:17:36.161Z,12.95
2018-04-06T22:19:36.786Z,13.09
2018-04-06T22:30:45.620Z,13.63
2018-04-06T22:35:44.038Z,13.83
2018-04-06T22:38:45.806Z,13.92
2018-04-06T22:44:50.454Z,14.04
2018-04-06T22:49:51.004Z,14.15
2018-04-06T22:51:51.995Z,14.18
2018-04-06T22:52:53.635Z,14.21
2018-04-06T22:54:53.165Z,14.24
2018-04-06T22:55:54.847Z,14.24
2018-04-06T22:56:53.909Z,14.27
2018-04-06T23:00:56.207Z,14.29
2018-04-06T23:01:56.325Z,14.30
2018-04-06T23:02:56.743Z,14.31
2018-04-06T23:03:57.222Z,14.33
2018-04-06T23:05:58.374Z,14.38
2018-04-06T23:09:00.196Z,14.40
2018-04-06T23:10:00.400Z,14.42
2018-04-06T23:11:00.940Z,14.44
2018-04-06T23:12:01.011Z,14.42
2018-04-06T23:14:01.953Z,14.42
2018-04-06T23:21:05.477Z,14.46
2018-04-06T23:23:07.862Z,14.45
2018-04-06T23:27:08.924Z,14.46
2018-04-06T23:31:56.040Z,14.49
2018-04-06T23:34:09.824Z,14.48
2018-04-06T23:35:57.797Z,14.47
2018-04-06T23:37:00.494Z,14.46
2018-04-06T23:38:59.624Z,14.47
2018-04-06T23:41:00.101Z,14.44
2018-04-06T23:45:02.272Z,14.43
2018-04-06T23:46:03.546Z,14.44
2018-04-06T23:48:03.873Z,14.43
2018-04-06T23:52:06.126Z,14.44
2018-04-06T23:58:08.628Z,14.43
